sensor_id;sensor_type;location;lat;lon;timestamp;P1;durP1;ratioP1;P2;durP2;ratioP2
355;SDS011;62514;48.112;11.566;2023-09-19T00:01:06;456.87;;;126.20;;
355;SDS011;62514;48.112;11.566;2023-09-19T00:03:34;463.27;;;118.03;;
355;SDS011;62514;48.112;11.566;2023-09-19T00:06:04;455.60;;;136.40;;
355;SDS011;62514;48.112;11.566;2023-09-19T00:08:39;460.67;;;131.43;;
355;SDS011;62514;48.112;11.566;2023-09-19T00:11:05;450.63;;;149.10;;
355;SDS011;62514;48.112;11.566;2023-09-19T00:13:32;419.40;;;87.57;;
355;SDS011;62514;48.112;11.566;2023-09-19T00:15:58;479.63;;;70.60;;
355;SDS011;62514;48.112;11.566;2023-09-19T00:18:25;400.57;;;147.27;;
355;SDS011;62514;48.112;11.566;2023-09-19T00:21:00;296.23;;;59.40;;
355;SDS011;62514;48.112;11.566;2023-09-19T00:23:26;404.50;;;60.50;;
355;SDS011;62514;48.112;11.566;2023-09-19T00:25:53;401.43;;;63.33;;
355;SDS011;62514;48.112;11.566;2023-09-19T00:28:22;390.87;;;61.53;;
355;SDS011;62514;48.112;11.566;2023-09-19T00:30:48;403.67;;;61.37;;
355;SDS011;62514;48.112;11.566;2023-09-19T00:33:15;330.03;;;51.93;;
355;SDS011;62514;48.112;11.566;2023-09-19T00:35:46;310.57;;;44.93;;
355;SDS011;62514;48.112;11.566;2023-09-19T00:38:20;458.23;;;77.10;;
355;SDS011;62514;48.112;11.566;2023-09-19T00:40:49;405.07;;;62.90;;
355;SDS011;62514;48.112;11.566;2023-09-19T00:43:18;315.73;;;50.53;;
355;SDS011;62514;48.112;11.566;2023-09-19T00:45:49;438.60;;;63.80;;
355;SDS011;62514;48.112;11.566;2023-09-19T00:48:18;474.50;;;90.57;;
355;SDS011;62514;48.112;11.566;2023-09-19T00:50:45;465.43;;;78.93;;
355;SDS011;62514;48.112;11.566;2023-09-19T00:53:14;384.67;;;51.60;;
355;SDS011;62514;48.112;11.566;2023-09-19T00:55:43;337.63;;;67.57;;
355;SDS011;62514;48.112;11.566;2023-09-19T00:58:10;306.53;;;42.60;;
355;SDS011;62514;48.112;11.566;2023-09-19T01:00:36;460.33;;;73.50;;
355;SDS011;62514;48.112;11.566;2023-09-19T01:03:03;477.87;;;84.73;;
355;SDS011;62514;48.112;11.566;2023-09-19T01:05:31;472.67;;;81.03;;
355;SDS011;62514;48.112;11.566;2023-09-19T01:07:58;468.50;;;97.23;;
355;SDS011;62514;48.112;11.566;2023-09-19T01:10:24;467.57;;;64.57;;
355;SDS011;62514;48.112;11.566;2023-09-19T01:13:11;470.57;;;82.87;;
355;SDS011;62514;48.112;11.566;2023-09-19T01:16:02;479.53;;;89.80;;
355;SDS011;62514;48.112;11.566;2023-09-19T01:29:47;439.90;;;67.97;;
355;SDS011;62514;48.112;11.566;2023-09-19T01:32:16;454.07;;;73.03;;
355;SDS011;62514;48.112;11.566;2023-09-19T01:34:55;411.90;;;64.63;;
355;SDS011;62514;48.112;11.566;2023-09-19T01:37:24;463.37;;;66.93;;
355;SDS011;62514;48.112;11.566;2023-09-19T01:40:01;471.27;;;66.17;;
355;SDS011;62514;48.112;11.566;2023-09-19T01:47:53;458.50;;;63.27;;
355;SDS011;62514;48.112;11.566;2023-09-19T01:50:34;475.07;;;70.90;;
355;SDS011;62514;48.112;11.566;2023-09-19T01:56:01;470.10;;;89.13;;
355;SDS011;62514;48.112;11.566;2023-09-19T02:01:03;470.47;;;68.50;;
355;SDS011;62514;48.112;11.566;2023-09-19T02:03:33;471.83;;;68.90;;
355;SDS011;62514;48.112;11.566;2023-09-19T02:06:01;469.37;;;70.77;;
355;SDS011;62514;48.112;11.566;2023-09-19T02:08:28;468.80;;;75.07;;
355;SDS011;62514;48.112;11.566;2023-09-19T02:10:56;363.00;;;47.57;;
355;SDS011;62514;48.112;11.566;2023-09-19T02:13:22;468.00;;;67.60;;
355;SDS011;62514;48.112;11.566;2023-09-19T02:15:52;469.07;;;71.37;;
355;SDS011;62514;48.112;11.566;2023-09-19T02:18:18;471.90;;;78.60;;
355;SDS011;62514;48.112;11.566;2023-09-19T02:20:45;469.30;;;90.50;;
355;SDS011;62514;48.112;11.566;2023-09-19T02:23:11;463.73;;;78.30;;
355;SDS011;62514;48.112;11.566;2023-09-19T02:25:37;454.17;;;62.03;;
355;SDS011;62514;48.112;11.566;2023-09-19T02:28:04;76.13;;;25.13;;
355;SDS011;62514;48.112;11.566;2023-09-19T02:30:30;515.77;;;220.00;;
355;SDS011;62514;48.112;11.566;2023-09-19T02:32:56;501.77;;;213.93;;
355;SDS011;62514;48.112;11.566;2023-09-19T02:35:22;513.63;;;227.23;;
355;SDS011;62514;48.112;11.566;2023-09-19T02:37:48;468.53;;;202.93;;
355;SDS011;62514;48.112;11.566;2023-09-19T02:40:14;359.80;;;82.13;;
355;SDS011;62514;48.112;11.566;2023-09-19T02:42:54;354.57;;;46.53;;
355;SDS011;62514;48.112;11.566;2023-09-19T02:45:21;469.30;;;68.10;;
355;SDS011;62514;48.112;11.566;2023-09-19T02:47:48;472.60;;;74.43;;
355;SDS011;62514;48.112;11.566;2023-09-19T02:50:14;453.53;;;60.40;;
355;SDS011;62514;48.112;11.566;2023-09-19T02:52:43;471.90;;;70.30;;
355;SDS011;62514;48.112;11.566;2023-09-19T02:55:12;470.80;;;65.33;;
355;SDS011;62514;48.112;11.566;2023-09-19T02:57:52;468.47;;;63.93;;
355;SDS011;62514;48.112;11.566;2023-09-19T03:00:20;469.30;;;79.37;;
355;SDS011;62514;48.112;11.566;2023-09-19T03:02:47;472.13;;;86.03;;
355;SDS011;62514;48.112;11.566;2023-09-19T03:05:13;474.37;;;81.10;;
355;SDS011;62514;48.112;11.566;2023-09-19T03:07:39;470.47;;;78.50;;
355;SDS011;62514;48.112;11.566;2023-09-19T03:10:05;469.93;;;80.27;;
355;SDS011;62514;48.112;11.566;2023-09-19T03:12:32;468.73;;;86.67;;
355;SDS011;62514;48.112;11.566;2023-09-19T03:14:59;472.00;;;86.67;;
355;SDS011;62514;48.112;11.566;2023-09-19T03:17:24;467.83;;;90.40;;
355;SDS011;62514;48.112;11.566;2023-09-19T03:19:50;468.57;;;94.83;;
355;SDS011;62514;48.112;11.566;2023-09-19T03:22:16;464.03;;;99.27;;
355;SDS011;62514;48.112;11.566;2023-09-19T03:24:42;466.73;;;102.97;;
355;SDS011;62514;48.112;11.566;2023-09-19T03:27:09;467.87;;;79.23;;
355;SDS011;62514;48.112;11.566;2023-09-19T03:29:35;470.23;;;75.73;;
355;SDS011;62514;48.112;11.566;2023-09-19T03:32:01;467.40;;;81.50;;
355;SDS011;62514;48.112;11.566;2023-09-19T03:34:27;464.80;;;86.83;;
355;SDS011;62514;48.112;11.566;2023-09-19T03:36:52;466.30;;;84.73;;
355;SDS011;62514;48.112;11.566;2023-09-19T03:39:18;467.30;;;84.30;;
355;SDS011;62514;48.112;11.566;2023-09-19T03:41:44;463.00;;;98.90;;
355;SDS011;62514;48.112;11.566;2023-09-19T03:44:10;466.33;;;117.50;;
355;SDS011;62514;48.112;11.566;2023-09-19T03:46:35;469.57;;;103.37;;
355;SDS011;62514;48.112;11.566;2023-09-19T03:49:01;460.97;;;99.67;;
355;SDS011;62514;48.112;11.566;2023-09-19T03:51:28;465.87;;;91.60;;
355;SDS011;62514;48.112;11.566;2023-09-19T03:53:53;456.47;;;132.47;;
355;SDS011;62514;48.112;11.566;2023-09-19T03:56:19;461.07;;;114.83;;
355;SDS011;62514;48.112;11.566;2023-09-19T03:58:44;459.70;;;114.63;;
355;SDS011;62514;48.112;11.566;2023-09-19T04:01:10;459.07;;;110.13;;
355;SDS011;62514;48.112;11.566;2023-09-19T04:03:36;457.67;;;118.67;;
355;SDS011;62514;48.112;11.566;2023-09-19T04:06:12;454.37;;;144.67;;
355;SDS011;62514;48.112;11.566;2023-09-19T04:08:38;452.20;;;130.67;;
355;SDS011;62514;48.112;11.566;2023-09-19T04:11:04;453.57;;;137.00;;
355;SDS011;62514;48.112;11.566;2023-09-19T04:13:30;470.57;;;76.63;;
355;SDS011;62514;48.112;11.566;2023-09-19T04:15:55;464.00;;;89.50;;
355;SDS011;62514;48.112;11.566;2023-09-19T04:18:21;463.57;;;96.57;;
355;SDS011;62514;48.112;11.566;2023-09-19T04:20:49;464.03;;;107.23;;
355;SDS011;62514;48.112;11.566;2023-09-19T04:23:15;463.63;;;115.33;;
355;SDS011;62514;48.112;11.566;2023-09-19T04:25:41;465.10;;;110.27;;
355;SDS011;62514;48.112;11.566;2023-09-19T04:28:06;467.87;;;106.10;;
355;SDS011;62514;48.112;11.566;2023-09-19T04:30:32;462.37;;;99.90;;
355;SDS011;62514;48.112;11.566;2023-09-19T04:32:58;482.80;;;105.30;;
355;SDS011;62514;48.112;11.566;2023-09-19T04:35:26;466.20;;;91.60;;
355;SDS011;62514;48.112;11.566;2023-09-19T04:37:56;467.00;;;85.93;;
355;SDS011;62514;48.112;11.566;2023-09-19T04:40:22;469.40;;;93.03;;
355;SDS011;62514;48.112;11.566;2023-09-19T04:42:54;470.03;;;90.23;;
355;SDS011;62514;48.112;11.566;2023-09-19T04:45:25;469.17;;;92.17;;
355;SDS011;62514;48.112;11.566;2023-09-19T04:47:52;463.60;;;85.67;;
355;SDS011;62514;48.112;11.566;2023-09-19T04:50:18;467.50;;;83.73;;
355;SDS011;62514;48.112;11.566;2023-09-19T04:52:48;466.33;;;87.97;;
355;SDS011;62514;48.112;11.566;2023-09-19T04:55:16;463.43;;;85.37;;
355;SDS011;62514;48.112;11.566;2023-09-19T04:57:46;468.60;;;88.23;;
355;SDS011;62514;48.112;11.566;2023-09-19T05:00:17;472.70;;;95.93;;
355;SDS011;62514;48.112;11.566;2023-09-19T05:02:50;468.03;;;102.30;;
355;SDS011;62514;48.112;11.566;2023-09-19T05:05:16;475.20;;;94.27;;
355;SDS011;62514;48.112;11.566;2023-09-19T05:07:42;466.37;;;95.60;;
355;SDS011;62514;48.112;11.566;2023-09-19T05:10:12;468.33;;;96.63;;
355;SDS011;62514;48.112;11.566;2023-09-19T05:12:38;479.53;;;97.03;;
355;SDS011;62514;48.112;11.566;2023-09-19T05:15:05;473.13;;;89.57;;
355;SDS011;62514;48.112;11.566;2023-09-19T05:17:34;465.40;;;92.87;;
355;SDS011;62514;48.112;11.566;2023-09-19T05:20:00;470.93;;;86.97;;
355;SDS011;62514;48.112;11.566;2023-09-19T05:22:43;469.13;;;90.70;;
355;SDS011;62514;48.112;11.566;2023-09-19T05:25:11;468.20;;;93.17;;
355;SDS011;62514;48.112;11.566;2023-09-19T05:27:41;468.37;;;88.27;;
355;SDS011;62514;48.112;11.566;2023-09-19T05:30:10;465.50;;;97.07;;
355;SDS011;62514;48.112;11.566;2023-09-19T05:32:39;465.07;;;91.17;;
355;SDS011;62514;48.112;11.566;2023-09-19T05:35:04;471.37;;;76.27;;
355;SDS011;62514;48.112;11.566;2023-09-19T05:37:34;468.07;;;75.33;;
355;SDS011;62514;48.112;11.566;2023-09-19T05:40:02;471.77;;;82.93;;
355;SDS011;62514;48.112;11.566;2023-09-19T05:42:34;467.77;;;81.27;;
355;SDS011;62514;48.112;11.566;2023-09-19T05:45:00;467.80;;;81.97;;
355;SDS011;62514;48.112;11.566;2023-09-19T05:47:26;469.33;;;80.77;;
355;SDS011;62514;48.112;11.566;2023-09-19T05:49:51;477.37;;;86.90;;
355;SDS011;62514;48.112;11.566;2023-09-19T05:52:17;475.20;;;79.93;;
355;SDS011;62514;48.112;11.566;2023-09-19T05:54:44;467.10;;;85.13;;
355;SDS011;62514;48.112;11.566;2023-09-19T05:57:09;465.40;;;81.20;;
355;SDS011;62514;48.112;11.566;2023-09-19T05:59:37;471.77;;;83.27;;
355;SDS011;62514;48.112;11.566;2023-09-19T06:02:05;467.10;;;80.97;;
355;SDS011;62514;48.112;11.566;2023-09-19T06:04:31;468.70;;;81.50;;
355;SDS011;62514;48.112;11.566;2023-09-19T06:06:57;464.50;;;87.17;;
355;SDS011;62514;48.112;11.566;2023-09-19T06:09:23;468.40;;;96.87;;
355;SDS011;62514;48.112;11.566;2023-09-19T06:11:49;471.20;;;95.43;;
355;SDS011;62514;48.112;11.566;2023-09-19T06:14:14;479.47;;;91.13;;
355;SDS011;62514;48.112;11.566;2023-09-19T06:16:42;467.00;;;93.73;;
355;SDS011;62514;48.112;11.566;2023-09-19T06:19:08;465.77;;;98.23;;
355;SDS011;62514;48.112;11.566;2023-09-19T06:21:35;470.97;;;103.43;;
355;SDS011;62514;48.112;11.566;2023-09-19T06:24:01;475.70;;;106.63;;
355;SDS011;62514;48.112;11.566;2023-09-19T06:26:28;468.73;;;100.90;;
355;SDS011;62514;48.112;11.566;2023-09-19T06:28:54;466.13;;;105.10;;
355;SDS011;62514;48.112;11.566;2023-09-19T06:31:20;472.63;;;103.57;;
355;SDS011;62514;48.112;11.566;2023-09-19T06:33:48;464.37;;;111.70;;
355;SDS011;62514;48.112;11.566;2023-09-19T06:36:13;466.93;;;109.70;;
355;SDS011;62514;48.112;11.566;2023-09-19T06:38:40;471.23;;;111.97;;
355;SDS011;62514;48.112;11.566;2023-09-19T06:41:06;466.33;;;107.00;;
355;SDS011;62514;48.112;11.566;2023-09-19T06:43:34;469.40;;;108.43;;
355;SDS011;62514;48.112;11.566;2023-09-19T06:46:03;353.67;;;144.27;;
355;SDS011;62514;48.112;11.566;2023-09-19T06:48:29;507.60;;;210.37;;
355;SDS011;62514;48.112;11.566;2023-09-19T06:50:55;518.90;;;229.60;;
355;SDS011;62514;48.112;11.566;2023-09-19T06:53:23;514.87;;;233.90;;
355;SDS011;62514;48.112;11.566;2023-09-19T06:55:52;508.10;;;219.00;;
355;SDS011;62514;48.112;11.566;2023-09-19T06:58:19;298.30;;;68.23;;
355;SDS011;62514;48.112;11.566;2023-09-19T07:00:45;447.03;;;186.33;;
355;SDS011;62514;48.112;11.566;2023-09-19T07:03:10;490.00;;;215.80;;
355;SDS011;62514;48.112;11.566;2023-09-19T07:05:38;515.93;;;223.73;;
355;SDS011;62514;48.112;11.566;2023-09-19T07:08:05;362.10;;;136.80;;
355;SDS011;62514;48.112;11.566;2023-09-19T07:10:33;407.90;;;143.20;;
355;SDS011;62514;48.112;11.566;2023-09-19T07:12:59;234.80;;;53.70;;
355;SDS011;62514;48.112;11.566;2023-09-19T07:15:26;367.17;;;74.70;;
355;SDS011;62514;48.112;11.566;2023-09-19T07:17:53;429.97;;;72.70;;
355;SDS011;62514;48.112;11.566;2023-09-19T07:20:19;461.43;;;84.80;;
355;SDS011;62514;48.112;11.566;2023-09-19T07:22:45;467.33;;;94.80;;
355;SDS011;62514;48.112;11.566;2023-09-19T07:25:13;458.47;;;135.33;;
355;SDS011;62514;48.112;11.566;2023-09-19T07:27:40;472.70;;;116.93;;
355;SDS011;62514;48.112;11.566;2023-09-19T07:30:07;473.83;;;113.23;;
355;SDS011;62514;48.112;11.566;2023-09-19T07:32:33;456.63;;;145.30;;
355;SDS011;62514;48.112;11.566;2023-09-19T07:35:01;467.70;;;157.53;;
355;SDS011;62514;48.112;11.566;2023-09-19T07:37:29;443.20;;;160.73;;
355;SDS011;62514;48.112;11.566;2023-09-19T07:40:01;423.83;;;158.67;;
355;SDS011;62514;48.112;11.566;2023-09-19T07:42:32;412.40;;;160.00;;
355;SDS011;62514;48.112;11.566;2023-09-19T07:45:00;420.43;;;172.33;;
355;SDS011;62514;48.112;11.566;2023-09-19T07:47:26;340.13;;;160.03;;
355;SDS011;62514;48.112;11.566;2023-09-19T07:49:52;199.30;;;126.60;;
355;SDS011;62514;48.112;11.566;2023-09-19T07:52:19;351.73;;;135.53;;
355;SDS011;62514;48.112;11.566;2023-09-19T07:54:48;317.00;;;94.80;;
355;SDS011;62514;48.112;11.566;2023-09-19T07:57:14;261.07;;;64.97;;
355;SDS011;62514;48.112;11.566;2023-09-19T07:59:41;467.27;;;175.93;;
355;SDS011;62514;48.112;11.566;2023-09-19T08:02:10;194.57;;;53.67;;
355;SDS011;62514;48.112;11.566;2023-09-19T08:04:42;482.10;;;183.27;;
355;SDS011;62514;48.112;11.566;2023-09-19T08:07:08;267.20;;;85.30;;
355;SDS011;62514;48.112;11.566;2023-09-19T08:09:34;498.50;;;197.80;;
355;SDS011;62514;48.112;11.566;2023-09-19T08:12:00;235.90;;;65.70;;
355;SDS011;62514;48.112;11.566;2023-09-19T08:14:30;456.53;;;176.33;;
355;SDS011;62514;48.112;11.566;2023-09-19T08:16:56;483.30;;;184.33;;
355;SDS011;62514;48.112;11.566;2023-09-19T08:19:23;170.73;;;31.57;;
355;SDS011;62514;48.112;11.566;2023-09-19T08:21:54;279.67;;;76.17;;
355;SDS011;62514;48.112;11.566;2023-09-19T08:24:23;447.97;;;175.57;;
355;SDS011;62514;48.112;11.566;2023-09-19T08:26:54;414.57;;;166.53;;
355;SDS011;62514;48.112;11.566;2023-09-19T08:29:20;419.03;;;182.93;;
355;SDS011;62514;48.112;11.566;2023-09-19T08:31:47;502.47;;;231.27;;
355;SDS011;62514;48.112;11.566;2023-09-19T08:34:14;495.20;;;209.10;;
355;SDS011;62514;48.112;11.566;2023-09-19T08:36:40;450.67;;;174.00;;
355;SDS011;62514;48.112;11.566;2023-09-19T08:39:08;474.83;;;212.40;;
355;SDS011;62514;48.112;11.566;2023-09-19T08:41:34;155.40;;;38.80;;
355;SDS011;62514;48.112;11.566;2023-09-19T08:44:00;205.57;;;77.93;;
355;SDS011;62514;48.112;11.566;2023-09-19T08:46:30;373.00;;;75.83;;
355;SDS011;62514;48.112;11.566;2023-09-19T08:49:08;435.67;;;188.30;;
355;SDS011;62514;48.112;11.566;2023-09-19T08:51:42;361.73;;;143.83;;
355;SDS011;62514;48.112;11.566;2023-09-19T08:54:24;382.40;;;124.93;;
355;SDS011;62514;48.112;11.566;2023-09-19T08:56:54;230.20;;;61.87;;
355;SDS011;62514;48.112;11.566;2023-09-19T08:59:22;295.93;;;87.50;;
355;SDS011;62514;48.112;11.566;2023-09-19T09:01:52;160.77;;;40.93;;
355;SDS011;62514;48.112;11.566;2023-09-19T09:04:20;175.20;;;43.83;;
355;SDS011;62514;48.112;11.566;2023-09-19T09:06:47;306.00;;;94.17;;
355;SDS011;62514;48.112;11.566;2023-09-19T09:09:16;197.73;;;76.97;;
355;SDS011;62514;48.112;11.566;2023-09-19T09:11:42;119.73;;;23.30;;
355;SDS011;62514;48.112;11.566;2023-09-19T09:14:08;141.20;;;43.03;;
355;SDS011;62514;48.112;11.566;2023-09-19T09:16:34;118.37;;;35.67;;
355;SDS011;62514;48.112;11.566;2023-09-19T09:19:00;186.27;;;74.27;;
355;SDS011;62514;48.112;11.566;2023-09-19T09:21:26;70.03;;;13.27;;
355;SDS011;62514;48.112;11.566;2023-09-19T09:23:53;151.87;;;23.77;;
355;SDS011;62514;48.112;11.566;2023-09-19T09:29:04;424.97;;;66.83;;
355;SDS011;62514;48.112;11.566;2023-09-19T09:31:30;471.17;;;77.60;;
355;SDS011;62514;48.112;11.566;2023-09-19T09:33:56;478.67;;;83.23;;
355;SDS011;62514;48.112;11.566;2023-09-19T09:36:36;487.30;;;90.03;;
355;SDS011;62514;48.112;11.566;2023-09-19T09:39:03;490.03;;;85.07;;
355;SDS011;62514;48.112;11.566;2023-09-19T09:41:50;462.77;;;74.73;;
355;SDS011;62514;48.112;11.566;2023-09-19T09:44:16;466.53;;;78.50;;
355;SDS011;62514;48.112;11.566;2023-09-19T09:46:45;470.67;;;74.73;;
355;SDS011;62514;48.112;11.566;2023-09-19T09:49:23;470.27;;;76.63;;
355;SDS011;62514;48.112;11.566;2023-09-19T09:52:00;492.57;;;82.90;;
355;SDS011;62514;48.112;11.566;2023-09-19T09:54:30;486.80;;;93.53;;
355;SDS011;62514;48.112;11.566;2023-09-19T09:59:57;483.43;;;102.33;;
355;SDS011;62514;48.112;11.566;2023-09-19T10:02:36;481.90;;;107.47;;
355;SDS011;62514;48.112;11.566;2023-09-19T10:05:38;486.37;;;103.63;;
355;SDS011;62514;48.112;11.566;2023-09-19T10:08:11;493.23;;;98.27;;
355;SDS011;62514;48.112;11.566;2023-09-19T10:10:41;389.83;;;78.47;;
355;SDS011;62514;48.112;11.566;2023-09-19T10:13:07;505.83;;;108.63;;
355;SDS011;62514;48.112;11.566;2023-09-19T10:18:19;489.87;;;126.27;;
355;SDS011;62514;48.112;11.566;2023-09-19T10:20:53;487.97;;;123.30;;
355;SDS011;62514;48.112;11.566;2023-09-19T10:23:20;497.33;;;135.37;;
355;SDS011;62514;48.112;11.566;2023-09-19T10:25:51;490.93;;;148.30;;
355;SDS011;62514;48.112;11.566;2023-09-19T10:28:18;484.87;;;154.87;;
355;SDS011;62514;48.112;11.566;2023-09-19T10:30:53;487.00;;;157.20;;
355;SDS011;62514;48.112;11.566;2023-09-19T10:33:23;497.73;;;153.33;;
355;SDS011;62514;48.112;11.566;2023-09-19T10:35:51;499.17;;;151.77;;
355;SDS011;62514;48.112;11.566;2023-09-19T10:38:17;484.00;;;175.77;;
355;SDS011;62514;48.112;11.566;2023-09-19T10:40:50;489.03;;;171.60;;
355;SDS011;62514;48.112;11.566;2023-09-19T10:43:19;480.77;;;169.17;;
355;SDS011;62514;48.112;11.566;2023-09-19T10:45:47;466.63;;;167.20;;
355;SDS011;62514;48.112;11.566;2023-09-19T10:48:15;469.77;;;171.70;;
355;SDS011;62514;48.112;11.566;2023-09-19T10:53:21;454.97;;;181.63;;
355;SDS011;62514;48.112;11.566;2023-09-19T10:55:49;460.57;;;172.70;;
355;SDS011;62514;48.112;11.566;2023-09-19T10:58:26;458.03;;;174.37;;
355;SDS011;62514;48.112;11.566;2023-09-19T11:00:54;452.53;;;170.40;;
355;SDS011;62514;48.112;11.566;2023-09-19T11:03:22;447.17;;;169.37;;
355;SDS011;62514;48.112;11.566;2023-09-19T11:06:04;453.20;;;179.77;;
355;SDS011;62514;48.112;11.566;2023-09-19T11:14:14;448.30;;;180.13;;
355;SDS011;62514;48.112;11.566;2023-09-19T11:30:49;427.57;;;174.93;;
355;SDS011;62514;48.112;11.566;2023-09-19T11:33:20;427.00;;;174.17;;
355;SDS011;62514;48.112;11.566;2023-09-19T11:36:03;422.40;;;172.90;;
355;SDS011;62514;48.112;11.566;2023-09-19T11:43:51;455.07;;;189.33;;
355;SDS011;62514;48.112;11.566;2023-09-19T11:46:20;446.53;;;167.67;;
355;SDS011;62514;48.112;11.566;2023-09-19T11:48:49;460.67;;;158.50;;
355;SDS011;62514;48.112;11.566;2023-09-19T11:51:22;475.70;;;120.77;;
355;SDS011;62514;48.112;11.566;2023-09-19T11:53:51;468.90;;;139.97;;
355;SDS011;62514;48.112;11.566;2023-09-19T11:56:22;473.07;;;126.23;;
355;SDS011;62514;48.112;11.566;2023-09-19T11:58:53;473.90;;;137.90;;
355;SDS011;62514;48.112;11.566;2023-09-19T12:04:11;468.07;;;136.47;;
355;SDS011;62514;48.112;11.566;2023-09-19T12:06:39;475.00;;;160.43;;
355;SDS011;62514;48.112;11.566;2023-09-19T12:09:11;457.37;;;162.50;;
355;SDS011;62514;48.112;11.566;2023-09-19T12:11:42;456.97;;;160.83;;
355;SDS011;62514;48.112;11.566;2023-09-19T12:14:10;471.03;;;165.13;;
355;SDS011;62514;48.112;11.566;2023-09-19T12:16:36;452.43;;;164.67;;
355;SDS011;62514;48.112;11.566;2023-09-19T12:19:19;449.87;;;166.17;;
355;SDS011;62514;48.112;11.566;2023-09-19T12:21:54;449.20;;;166.07;;
355;SDS011;62514;48.112;11.566;2023-09-19T12:24:34;450.97;;;174.67;;
355;SDS011;62514;48.112;11.566;2023-09-19T12:27:06;435.37;;;170.73;;
355;SDS011;62514;48.112;11.566;2023-09-19T12:29:41;436.73;;;171.90;;
355;SDS011;62514;48.112;11.566;2023-09-19T12:32:08;441.53;;;178.73;;
355;SDS011;62514;48.112;11.566;2023-09-19T12:34:34;424.80;;;169.70;;
355;SDS011;62514;48.112;11.566;2023-09-19T12:39:37;425.87;;;181.17;;
355;SDS011;62514;48.112;11.566;2023-09-19T12:42:04;424.07;;;172.50;;
355;SDS011;62514;48.112;11.566;2023-09-19T12:44:34;422.77;;;173.47;;
355;SDS011;62514;48.112;11.566;2023-09-19T12:47:08;422.43;;;172.83;;
355;SDS011;62514;48.112;11.566;2023-09-19T12:52:48;447.57;;;174.80;;
355;SDS011;62514;48.112;11.566;2023-09-19T12:55:25;425.10;;;175.80;;
355;SDS011;62514;48.112;11.566;2023-09-19T12:58:01;434.57;;;174.60;;
355;SDS011;62514;48.112;11.566;2023-09-19T13:03:11;422.07;;;193.83;;
355;SDS011;62514;48.112;11.566;2023-09-19T13:13:39;396.90;;;168.20;;
355;SDS011;62514;48.112;11.566;2023-09-19T13:16:09;397.57;;;166.73;;
355;SDS011;62514;48.112;11.566;2023-09-19T13:18:45;375.33;;;161.67;;
355;SDS011;62514;48.112;11.566;2023-09-19T13:21:15;381.63;;;164.13;;
355;SDS011;62514;48.112;11.566;2023-09-19T13:23:49;361.60;;;163.20;;
355;SDS011;62514;48.112;11.566;2023-09-19T13:26:15;352.07;;;165.57;;
355;SDS011;62514;48.112;11.566;2023-09-19T13:28:41;364.33;;;167.80;;
355;SDS011;62514;48.112;11.566;2023-09-19T13:31:07;365.07;;;166.00;;
355;SDS011;62514;48.112;11.566;2023-09-19T13:33:35;374.40;;;170.27;;
355;SDS011;62514;48.112;11.566;2023-09-19T13:36:08;383.40;;;176.93;;
355;SDS011;62514;48.112;11.566;2023-09-19T13:38:34;379.03;;;171.03;;
355;SDS011;62514;48.112;11.566;2023-09-19T13:41:00;380.57;;;175.20;;
355;SDS011;62514;48.112;11.566;2023-09-19T13:43:27;407.87;;;180.33;;
355;SDS011;62514;48.112;11.566;2023-09-19T13:45:54;413.13;;;171.63;;
355;SDS011;62514;48.112;11.566;2023-09-19T13:48:20;422.50;;;165.47;;
355;SDS011;62514;48.112;11.566;2023-09-19T13:50:48;415.83;;;163.13;;
355;SDS011;62514;48.112;11.566;2023-09-19T13:53:14;419.23;;;164.83;;
355;SDS011;62514;48.112;11.566;2023-09-19T13:55:40;433.00;;;166.23;;
355;SDS011;62514;48.112;11.566;2023-09-19T13:58:06;448.80;;;138.27;;
355;SDS011;62514;48.112;11.566;2023-09-19T14:00:32;451.80;;;146.93;;
355;SDS011;62514;48.112;11.566;2023-09-19T14:03:02;451.73;;;133.87;;
355;SDS011;62514;48.112;11.566;2023-09-19T14:05:29;474.93;;;125.10;;
355;SDS011;62514;48.112;11.566;2023-09-19T14:07:55;468.83;;;118.20;;
355;SDS011;62514;48.112;11.566;2023-09-19T14:10:24;475.13;;;131.87;;
355;SDS011;62514;48.112;11.566;2023-09-19T14:12:52;476.30;;;130.00;;
355;SDS011;62514;48.112;11.566;2023-09-19T14:15:17;470.90;;;129.60;;
355;SDS011;62514;48.112;11.566;2023-09-19T14:17:43;479.40;;;130.70;;
355;SDS011;62514;48.112;11.566;2023-09-19T14:20:12;476.13;;;128.73;;
355;SDS011;62514;48.112;11.566;2023-09-19T14:22:38;505.63;;;121.30;;
355;SDS011;62514;48.112;11.566;2023-09-19T14:25:04;511.93;;;124.43;;
355;SDS011;62514;48.112;11.566;2023-09-19T14:27:30;509.43;;;123.20;;
355;SDS011;62514;48.112;11.566;2023-09-19T14:29:56;513.17;;;132.87;;
355;SDS011;62514;48.112;11.566;2023-09-19T14:32:22;507.53;;;133.50;;
355;SDS011;62514;48.112;11.566;2023-09-19T14:34:48;499.37;;;135.07;;
355;SDS011;62514;48.112;11.566;2023-09-19T14:37:14;502.83;;;140.47;;
355;SDS011;62514;48.112;11.566;2023-09-19T14:39:41;496.20;;;149.00;;
355;SDS011;62514;48.112;11.566;2023-09-19T14:42:10;499.30;;;150.20;;
355;SDS011;62514;48.112;11.566;2023-09-19T14:44:36;491.10;;;154.63;;
355;SDS011;62514;48.112;11.566;2023-09-19T14:47:02;493.90;;;158.63;;
355;SDS011;62514;48.112;11.566;2023-09-19T14:49:35;493.70;;;175.80;;
355;SDS011;62514;48.112;11.566;2023-09-19T14:52:05;488.50;;;164.87;;
355;SDS011;62514;48.112;11.566;2023-09-19T14:54:35;482.00;;;167.73;;
355;SDS011;62514;48.112;11.566;2023-09-19T14:57:03;483.93;;;174.67;;
355;SDS011;62514;48.112;11.566;2023-09-19T14:59:32;481.77;;;173.50;;
355;SDS011;62514;48.112;11.566;2023-09-19T15:02:05;473.03;;;172.27;;
355;SDS011;62514;48.112;11.566;2023-09-19T15:04:31;462.83;;;179.10;;
355;SDS011;62514;48.112;11.566;2023-09-19T15:06:58;469.87;;;183.30;;
355;SDS011;62514;48.112;11.566;2023-09-19T15:09:25;479.10;;;181.83;;
355;SDS011;62514;48.112;11.566;2023-09-19T15:11:54;475.27;;;181.40;;
355;SDS011;62514;48.112;11.566;2023-09-19T15:14:21;470.77;;;175.67;;
355;SDS011;62514;48.112;11.566;2023-09-19T15:16:47;465.43;;;182.50;;
355;SDS011;62514;48.112;11.566;2023-09-19T15:19:13;462.07;;;174.10;;
355;SDS011;62514;48.112;11.566;2023-09-19T15:21:40;473.33;;;196.40;;
355;SDS011;62514;48.112;11.566;2023-09-19T15:24:06;463.07;;;176.73;;
355;SDS011;62514;48.112;11.566;2023-09-19T15:26:35;460.07;;;174.23;;
355;SDS011;62514;48.112;11.566;2023-09-19T15:29:05;463.73;;;177.93;;
355;SDS011;62514;48.112;11.566;2023-09-19T15:31:34;465.10;;;183.10;;
355;SDS011;62514;48.112;11.566;2023-09-19T15:34:04;458.67;;;179.83;;
355;SDS011;62514;48.112;11.566;2023-09-19T15:36:30;453.27;;;186.87;;
355;SDS011;62514;48.112;11.566;2023-09-19T15:41:37;450.10;;;178.60;;